Time;durP1;ratioP1;P1;durP2;ratioP2;P2;SDS_P1;SDS_P2;PMS_P1;PMS_P2;Temp;Humidity;BMP_temperature;BMP_pressure;BME280_temperature;BME280_humidity;BME280_pressure;Samples;Min_cycle;Max_cycle;Signal;HPM_P1;HPM_P2
2022/10/06 00:01:39;;;;;;;0.00;0.00;;;8.00;99.90;;;;;;5094053;28;20046;-76
2022/10/06 00:04:05;;;;;;;0.00;0.00;;;;;;;;;;5094656;28;20091;-76
2022/10/06 00:06:32;;;;;;;0.35;0.35;;;;;;;;;;5094081;28;20312;-76
2022/10/06 00:08:58;;;;;;;0.00;0.00;;;;;;;;;;5087595;28;20016;-76
2022/10/06 00:11:27;;;;;;;0.03;0.03;;;8.00;99.90;;;;;;5089435;28;20032;-76
2022/10/06 00:13:52;;;;;;;0.00;0.00;;;7.90;99.90;;;;;;5108704;28;20080;-76
2022/10/06 00:16:21;;;;;;;0.00;0.00;;;8.80;99.90;;;;;;5107771;28;20035;-76
2022/10/06 00:18:57;;;;;;;0.10;0.10;;;;;;;;;;5107030;28;20378;-76
2022/10/06 00:21:24;;;;;;;0.52;0.52;;;;;;;;;;5106688;28;20027;-77
2022/10/06 00:23:52;;;;;;;0.17;0.17;;;;;;;;;;5106302;28;20048;-76
2022/10/06 00:26:20;;;;;;;0.00;0.00;;;7.80;99.90;;;;;;5107108;28;20023;-76
2022/10/06 00:28:49;;;;;;;0.10;0.10;;;8.60;99.90;;;;;;5107272;28;20058;-76
2022/10/06 00:31:18;;;;;;;0.00;0.00;;;;;;;;;;5107166;28;20035;-76
2022/10/06 00:33:53;;;;;;;0.00;0.00;;;7.90;99.90;;;;;;5106945;28;20020;-76
2022/10/06 00:36:20;;;;;;;;;;;7.70;99.90;;;;;;5088117;28;20028;-76
2022/10/06 00:38:51;;;;;;;;;;;7.20;99.90;;;;;;5108132;28;19961;-76
2022/10/06 00:41:22;;;;;;;;;;;7.70;99.90;;;;;;5089582;28;19912;-76
2022/10/06 00:44:01;;;;;;;;;;;7.70;99.90;;;;;;5105515;28;19904;-76
2022/10/06 00:46:27;;;;;;;;;;;7.60;99.90;;;;;;5089214;28;19908;-76
2022/10/06 00:49:00;;;;;;;;;;;7.60;99.90;;;;;;5107510;28;19904;-76
2022/10/06 00:51:27;;;;;;;;;;;4.60;99.90;;;;;;5107709;28;19904;-76
2022/10/06 00:53:54;;;;;;;;;;;8.00;99.90;;;;;;5089482;28;19915;-75
2022/10/06 00:56:20;;;;;;;;;;;7.50;99.90;;;;;;5108566;28;19911;-76
2022/10/06 00:58:47;;;;;;;;;;;7.50;99.90;;;;;;5109328;28;19908;-77
2022/10/06 01:01:25;;;;;;;;;;;7.50;99.90;;;;;;5110604;28;20126;-75
2022/10/06 01:03:54;;;;;;;;;;;7.50;99.90;;;;;;5107399;28;19915;-76
2022/10/06 01:06:20;;;;;;;;;;;7.40;99.90;;;;;;5106897;28;19908;-77
2022/10/06 01:08:46;;;;;;;;;;;7.50;99.90;;;;;;5100313;28;19935;-76
2022/10/06 01:11:13;;;;;;;;;;;7.50;99.90;;;;;;5095754;28;19904;-76
2022/10/06 01:13:42;;;;;;;;;;;7.40;99.90;;;;;;5077052;28;20026;-77
2022/10/06 01:16:13;;;;;;;;;;;7.50;99.90;;;;;;5075592;28;20359;-77
2022/10/06 01:18:41;;;;;;;;;;;7.80;99.90;;;;;;5095936;28;19903;-76
2022/10/06 01:21:26;;;;;;;;;;;7.00;99.90;;;;;;5096363;28;19907;-78
2022/10/06 01:24:03;;;;;;;;;;;7.00;99.90;;;;;;5096733;28;19995;-76
2022/10/06 01:26:30;;;;;;;;;;;7.30;99.90;;;;;;5094953;28;20001;-76
2022/10/06 01:28:56;;;;;;;;;;;7.30;99.90;;;;;;5075348;28;19908;-76
2022/10/06 01:31:25;;;;;;;;;;;7.30;99.90;;;;;;5094166;28;19911;-76
2022/10/06 01:33:53;;;;;;;;;;;7.30;99.90;;;;;;5095775;28;19904;-76
2022/10/06 01:36:22;;;;;;;;;;;8.10;99.90;;;;;;5077549;28;19979;-77
2022/10/06 01:38:48;;;;;;;;;;;7.30;99.90;;;;;;5095955;28;19998;-76
2022/10/06 01:41:18;;;;;;;;;;;7.20;99.90;;;;;;5076728;28;20154;-77
2022/10/06 01:43:44;;;;;;;;;;;7.20;99.90;;;;;;5094517;28;19939;-77
2022/10/06 01:46:11;;;;;;;;;;;7.00;99.90;;;;;;5094841;28;19943;-76
2022/10/06 01:48:37;;;;;;;;;;;7.20;99.90;;;;;;5093391;28;19904;-76
2022/10/06 01:51:02;;;;;;;;;;;7.50;99.90;;;;;;5093848;28;20049;-76
2022/10/06 01:53:28;;;;;;;;;;;4.90;99.90;;;;;;5092421;28;20397;-76
2022/10/06 01:55:58;;;;;;;;;;;7.10;99.90;;;;;;5100343;28;19904;-76
2022/10/06 01:58:24;;;;;;;;;;;7.40;99.90;;;;;;5099217;28;19926;-76
2022/10/06 02:00:49;;;;;;;;;;;7.30;99.90;;;;;;5096270;28;19908;-77
2022/10/06 02:03:16;;;;;;;;;;;7.20;99.90;;;;;;5096272;28;19946;-77
2022/10/06 02:05:41;;;;;;;;;;;7.10;99.90;;;;;;5097496;28;19919;-77
2022/10/06 02:08:16;;;;;;;;;;;7.30;99.90;;;;;;5096879;28;19904;-76
2022/10/06 02:10:41;;;;;;;;;;;7.30;99.90;;;;;;5095211;28;19962;-76
2022/10/06 02:13:09;;;;;;;;;;;7.40;99.90;;;;;;5095369;28;19911;-76
2022/10/06 02:15:34;;;;;;;;;;;7.40;99.90;;;;;;5078432;28;19939;-77
2022/10/06 02:18:10;;;;;;;;;;;7.40;99.90;;;;;;5096260;28;19993;-76
2022/10/06 02:20:35;;;;;;;;;;;5.00;99.90;;;;;;5077520;28;19903;-76
2022/10/06 02:23:03;;;;;;;;;;;7.90;99.90;;;;;;5095527;28;19926;-77
2022/10/06 02:25:29;;;;;;;;;;;7.50;99.90;;;;;;5095360;28;19919;-76
2022/10/06 02:27:55;;;;;;;;;;;7.50;99.90;;;;;;5077592;28;20321;-77
2022/10/06 02:30:21;;;;;;;;;;;7.50;99.90;;;;;;5095291;28;19904;-76
2022/10/06 02:32:47;;;;;;;;;;;7.50;99.90;;;;;;5095968;28;19908;-76
2022/10/06 02:35:16;;;;;;;;;;;7.50;99.90;;;;;;5096638;28;19931;-77
2022/10/06 02:37:42;;;;;;;;;;;7.50;99.90;;;;;;5100034;28;19904;-77
2022/10/06 02:40:08;;;;;;;;;;;7.50;99.90;;;;;;5100473;28;19971;-76
2022/10/06 02:42:40;;;;;;;;;;;7.50;99.90;;;;;;5100731;28;19912;-77
2022/10/06 02:45:07;;;;;;;;;;;7.40;99.90;;;;;;5100313;28;19919;-77
2022/10/06 02:47:38;;;;;;;;;;;7.40;99.90;;;;;;5081495;28;20202;-77
2022/10/06 02:50:05;;;;;;;;;;;7.30;99.90;;;;;;5093725;28;19935;-76
2022/10/06 02:52:35;;;;;;;;;;;7.20;99.90;;;;;;5093965;28;19988;-76
2022/10/06 02:55:03;;;;;;;;;;;7.10;99.90;;;;;;5106406;28;20371;-77
2022/10/06 02:57:29;;;;;;;;;;;7.10;99.90;;;;;;5106889;28;20200;-76
2022/10/06 02:59:54;;;;;;;;;;;7.10;99.90;;;;;;5089314;28;19911;-76
2022/10/06 03:02:31;;;;;;;;;;;6.30;99.90;;;;;;5107293;28;19908;-75
2022/10/06 03:04:56;;;;;;;;;;;7.30;99.90;;;;;;5088614;28;20451;-75
2022/10/06 03:07:22;;;;;;;;;;;7.40;99.90;;;;;;5106606;28;19892;-76
2022/10/06 03:09:52;;;;;;;;;;;6.90;99.90;;;;;;5091318;28;19908;-76
2022/10/06 03:12:18;;;;;;;;;;;7.40;99.90;;;;;;5086464;28;19908;-76
2022/10/06 03:14:44;;;;;;;;;;;6.90;99.90;;;;;;5088880;28;19914;-76
2022/10/06 03:17:09;;;;;;;;;;;6.90;99.90;;;;;;5090579;28;19908;-76
2022/10/06 03:19:38;;;;;;;;;;;6.80;99.90;;;;;;5072102;28;19915;-76
2022/10/06 03:22:04;;;;;;;;;;;6.80;99.90;;;;;;5073293;28;19904;-77
2022/10/06 03:24:30;;;;;;;;;;;6.70;99.90;;;;;;5093258;28;19942;-76
2022/10/06 03:26:57;;;;;;;;;;;6.70;99.90;;;;;;5097490;28;20336;-76
2022/10/06 03:29:30;;;;;;;;;;;6.70;99.90;;;;;;5098091;28;20192;-76
2022/10/06 03:31:57;;;;;;;;;;;6.70;99.90;;;;;;5079123;28;20117;-76
2022/10/06 03:34:26;;;;;;;;;;;6.60;99.90;;;;;;5097654;28;19908;-77
2022/10/06 03:36:52;;;;;;;;;;;6.50;99.90;;;;;;5097178;28;19911;-76
2022/10/06 03:39:19;;;;;;;;;;;6.50;99.90;;;;;;5091413;28;19904;-76
2022/10/06 03:41:45;;;;;;;;;;;6.50;99.90;;;;;;5091120;28;19983;-76
2022/10/06 03:44:11;;;;;;;;;;;6.50;99.90;;;;;;5073118;28;19977;-76
2022/10/06 03:46:37;;;;;;;;;;;6.50;99.90;;;;;;5088677;28;20123;-76
2022/10/06 03:49:04;;;;;;;;;;;6.40;99.90;;;;;;5073019;28;19942;-76
2022/10/06 03:51:32;;;;;;;;;;;6.40;99.90;;;;;;5092285;28;20120;-77
2022/10/06 03:53:58;;;;;;;;;;;6.40;99.90;;;;;;5092374;28;20215;-76
2022/10/06 03:56:27;;;;;;;;;;;4.70;99.90;;;;;;5091715;28;19979;-76
2022/10/06 03:59:06;;;;;;;;;;;7.10;99.90;;;;;;5091687;28;19925;-76
2022/10/06 04:01:33;;;;;;;;;;;7.20;99.90;;;;;;5091515;28;19992;-76
2022/10/06 04:03:59;;;;;;;;;;;6.50;99.90;;;;;;5072722;28;19911;-76
2022/10/06 04:06:27;;;;;;;;;;;6.40;99.90;;;;;;5091485;28;19912;-76
2022/10/06 04:08:53;;;;;;;;;;;6.50;99.90;;;;;;5094770;28;20285;-76
2022/10/06 04:11:20;;;;;;;;;;;6.50;99.90;;;;;;5110376;23;19924;-76
2022/10/06 04:13:46;;;;;;;;;;;7.50;99.90;;;;;;5087291;28;20004;-76
2022/10/06 04:16:15;;;;;;;;;;;6.60;99.90;;;;;;5105916;28;19904;-76
2022/10/06 04:18:42;;;;;;;;;;;6.90;99.90;;;;;;5105724;28;19904;-77
2022/10/06 04:21:08;;;;;;;;;;;6.40;99.90;;;;;;5107686;28;19919;-76
2022/10/06 04:23:35;;;;;;;;;;;6.90;99.90;;;;;;5107470;28;19904;-77
2022/10/06 04:26:04;;;;;;;;;;;6.50;99.90;;;;;;5110756;28;19912;-76
2022/10/06 04:28:29;;;;;;;;;;;6.40;99.90;;;;;;5085790;28;19904;-76
2022/10/06 04:31:02;;;;;;;;;;;6.70;99.90;;;;;;5100094;28;20224;-77
2022/10/06 04:33:28;;;;;;;;;;;6.50;99.90;;;;;;5098958;28;19904;-76
2022/10/06 04:35:57;;;;;;;;;;;6.10;99.90;;;;;;5098568;28;19944;-76
2022/10/06 04:38:27;;;;;;;;;;;4.10;99.90;;;;;;5090839;28;19904;-76
2022/10/06 04:40:54;;;;;;;;;;;6.40;99.90;;;;;;5106119;28;20100;-76
2022/10/06 04:43:19;;;;;;;;;;;6.30;99.90;;;;;;5106039;28;19909;-78
2022/10/06 04:45:45;;;;;;;;;;;6.60;99.90;;;;;;5105998;28;19912;-75
2022/10/06 04:48:11;;;;;;;;;;;6.00;99.90;;;;;;5106151;28;19904;-76
2022/10/06 04:50:37;;;;;;;;;;;6.30;99.90;;;;;;5106092;28;19908;-76
2022/10/06 04:53:02;;;;;;;;;;;4.40;99.90;;;;;;5102877;28;19912;-77
2022/10/06 04:55:32;;;;;;;;;;;7.00;99.90;;;;;;5104925;28;19932;-76
2022/10/06 04:57:59;;;;;;;;;;;6.70;99.90;;;;;;5105023;28;19904;-76
2022/10/06 05:00:25;;;;;;;;;;;6.70;99.90;;;;;;5087500;28;19947;-76
2022/10/06 05:03:01;;;;;;;;;;;5.50;99.90;;;;;;5106470;28;19908;-77
2022/10/06 05:05:30;;;;;;;;;;;6.30;99.90;;;;;;5088062;28;19912;-76
2022/10/06 05:08:00;;;;;;;;;;;4.60;99.90;;;;;;5105703;28;19911;-76
2022/10/06 05:10:27;;;;;;;;;;;6.40;99.90;;;;;;5103192;28;19904;-76
2022/10/06 05:12:52;;;;;;;;;;;6.30;99.90;;;;;;5100716;28;20107;-76
2022/10/06 05:15:19;;;;;;;;;;;6.80;99.90;;;;;;5103170;28;19915;-76
2022/10/06 05:17:50;;;;;;;;;;;6.30;99.90;;;;;;5100355;28;19904;-77
2022/10/06 05:20:21;;;;;;;;;;;6.40;99.90;;;;;;5102440;28;19911;-76
2022/10/06 05:22:47;;;;;;;;;;;6.40;99.90;;;;;;5095679;28;20574;-76
2022/10/06 05:25:13;;;;;;;;;;;6.30;99.90;;;;;;5089692;28;20011;-77
2022/10/06 05:27:38;;;;;;;;;;;6.40;99.90;;;;;;5087166;28;19908;-76
2022/10/06 05:30:04;;;;;;;;;;;6.40;99.90;;;;;;5088251;28;20449;-76
2022/10/06 05:32:30;;;;;;;;;;;6.90;99.90;;;;;;5087731;28;19939;-76
2022/10/06 05:34:55;;;;;;;;;;;4.00;99.90;;;;;;5090686;28;19908;-77
2022/10/06 05:37:21;;;;;;;;;;;6.40;99.90;;;;;;5092755;28;19919;-77
2022/10/06 05:39:47;;;;;;;;;;;6.40;99.90;;;;;;5092894;28;19993;-76
2022/10/06 05:42:12;;;;;;;;;;;6.50;99.90;;;;;;5093722;28;19904;-76
2022/10/06 05:44:41;;;;;;;;;;;6.50;99.90;;;;;;5096668;28;19920;-77
2022/10/06 05:47:10;;;;;;;;;;;6.60;99.90;;;;;;5093631;28;19912;-77
2022/10/06 05:49:39;;;;;;;;;;;6.60;99.90;;;;;;5092243;28;19908;-77
2022/10/06 05:52:10;;;;;;;;;;;6.40;99.90;;;;;;5094524;28;19908;-78
2022/10/06 05:54:39;;;;;;;;;;;5.90;99.90;;;;;;5093327;28;19923;-77
2022/10/06 05:57:05;;;;;;;;;;;6.90;99.90;;;;;;5096636;28;20015;-77
2022/10/06 05:59:33;;;;;;;;;;;6.90;99.90;;;;;;5102419;28;19904;-77
2022/10/06 06:01:59;;;;;;;;;;;7.00;99.90;;;;;;5100496;28;19904;-77
2022/10/06 06:04:25;;;;;;;;;;;7.00;99.90;;;;;;5073807;28;20363;-77
2022/10/06 06:06:51;;;;;;;;;;;7.20;99.90;;;;;;5093292;28;19934;-77
2022/10/06 06:09:17;;;;;;;;;;;7.10;99.90;;;;;;5092549;28;20547;-76
2022/10/06 06:11:47;;;;;;;;;;;6.00;99.90;;;;;;5094771;28;20145;-76
2022/10/06 06:14:14;;;;;;;;;;;7.80;99.90;;;;;;5097140;28;19904;-76
2022/10/06 06:16:57;;;;;;;;;;;7.50;99.90;;;;;;5077781;28;20349;-76
2022/10/06 06:19:25;;;;;;;;;;;6.90;99.90;;;;;;5096598;28;19903;-77
2022/10/06 06:21:50;;;;;;;;;;;7.80;99.90;;;;;;5077023;28;20337;-77
2022/10/06 06:24:16;;;;;;;;;;;8.00;99.90;;;;;;5091446;28;19912;-76
2022/10/06 06:26:42;;;;;;;;;;;8.10;99.90;;;;;;5088660;28;19915;-77
2022/10/06 06:29:08;;;;;;;;;;;8.20;99.90;;;;;;5086842;28;19907;-76
2022/10/06 06:31:37;;;;;;;;;;;8.30;99.90;;;;;;5091841;28;19963;-76
2022/10/06 06:34:05;;;;;;;;;;;8.30;99.90;;;;;;5071026;28;19904;-77
2022/10/06 06:36:39;;;;;;;;;;;8.50;99.90;;;;;;5091493;28;19999;-77
2022/10/06 06:39:10;;;;;;;;;;;8.00;99.90;;;;;;5091622;28;19904;-76
2022/10/06 06:41:39;;;;;;;;;;;8.60;99.90;;;;;;5070547;28;19943;-76
2022/10/06 06:44:07;;;;;;;;;;;8.60;99.90;;;;;;5090004;28;20072;-77
2022/10/06 06:46:36;;;;;;;;;;;8.70;99.90;;;;;;5086028;28;20112;-76
2022/10/06 06:49:11;;;;;;;;;;;8.50;99.90;;;;;;5073136;28;20069;-76
2022/10/06 06:51:39;;;;;;;;;;;8.90;99.90;;;;;;5089961;28;19958;-77
2022/10/06 06:54:05;;;;;;;;;;;8.90;99.90;;;;;;5086612;28;19911;-77
2022/10/06 06:56:33;;;;;;;;;;;9.10;99.90;;;;;;5073694;28;19978;-76
2022/10/06 06:59:05;;;;;;;;;;;9.20;99.90;;;;;;5067581;28;19908;-76
2022/10/06 07:01:51;;;;;;;;;;;9.40;99.90;;;;;;5093717;28;19908;-76
2022/10/06 07:04:17;;;;;;;;;;;9.40;99.90;;;;;;5078681;28;19958;-75
2022/10/06 07:06:52;;;;;;;;;;;9.60;99.90;;;;;;5092939;28;20112;-76
2022/10/06 07:09:29;;;;;;;;;;;9.50;99.90;;;;;;5094333;28;19904;-76
2022/10/06 07:11:55;;;;;;;;;;;9.90;99.90;;;;;;5070409;28;19916;-76
2022/10/06 07:14:22;;;;;;;;;;;9.40;99.90;;;;;;5090710;28;19904;-76
2022/10/06 07:25:11;;;;;;;;;;;10.20;99.90;;;;;;5103706;28;19922;-76
2022/10/06 07:27:41;;;;;;;;;;;10.30;99.90;;;;;;5098677;28;19908;-76
2022/10/06 07:30:08;;;;;;;;;;;9.40;99.90;;;;;;5100691;28;20398;-76
2022/10/06 07:32:36;;;;;;;;;;;10.60;99.90;;;;;;5099891;28;20271;-76
2022/10/06 07:35:03;;;;;;;;;;;10.60;99.90;;;;;;5097002;28;19912;-78
2022/10/06 07:37:29;;;;;;;;;;;10.50;99.90;;;;;;5098633;28;20370;-78
2022/10/06 07:39:54;;;;;;;;;;;10.90;99.90;;;;;;5095689;28;19904;-77
2022/10/06 07:42:20;;;;;;;;;;;10.80;99.90;;;;;;5097977;28;19904;-76
2022/10/06 07:45:37;;;;;;;;;;;10.50;99.90;;;;;;5092332;28;19994;-78
2022/10/06 07:47:32;;;;;;;;;;;12.10;99.90;;;;;;5097456;28;20137;-78
2022/10/06 07:50:02;;;;;;;;;;;11.30;99.90;;;;;;5078840;28;19912;-78
2022/10/06 07:52:27;;;;;;;;;;;11.30;99.90;;;;;;5092658;28;19958;-82
2022/10/06 07:54:53;;;;;;;;;;;11.50;99.90;;;;;;5074677;28;20142;-78
2022/10/06 07:57:20;;;;;;;;;;;11.50;99.90;;;;;;5093507;28;19912;-78
2022/10/06 07:59:53;;;;;;;;;;;11.60;99.90;;;;;;5098410;28;19910;-77
2022/10/06 08:02:18;;;;;;;;;;;11.60;99.90;;;;;;5092467;28;19908;-76
2022/10/06 08:04:44;;;;;;;;;;;11.70;99.90;;;;;;5094194;28;19927;-78
2022/10/06 08:07:11;;;;;;;;;;;10.70;99.90;;;;;;5090952;28;19904;-79
2022/10/06 08:09:37;;;;;;;;;;;12.00;99.90;;;;;;5085034;28;19908;-82
2022/10/06 08:12:31;;;;;;;;;;;12.10;99.90;;;;;;5081626;28;20374;-78
2022/10/06 08:14:48;;;;;;;;;;;12.30;99.90;;;;;;5082821;28;19916;-77
2022/10/06 08:17:14;;;;;;;;;;;12.40;99.90;;;;;;5083293;28;19977;-82
2022/10/06 08:19:39;;;;;;;;;;;12.50;99.90;;;;;;5063938;28;20320;-79
2022/10/06 08:22:05;;;;;;;;;;;12.70;99.90;;;;;;5083397;28;19908;-77
2022/10/06 08:24:30;;;;;;;;;;;12.90;99.90;;;;;;5083068;28;19923;-78
2022/10/06 08:26:56;;;;;;;;;;;13.10;99.90;;;;;;5063834;28;19944;-82
2022/10/06 08:29:22;;;;;;;;;;;13.30;99.90;;;;;;5063992;28;19904;-81
2022/10/06 08:31:47;;;;;;;;;;;12.10;99.90;;;;;;5081741;28;19904;-86
2022/10/06 08:34:13;;;;;;;;;;;13.50;99.90;;;;;;5063288;28;20390;-79
2022/10/06 08:36:38;;;;;;;;;;;13.50;99.90;;;;;;5075998;28;19957;-78
2022/10/06 08:39:06;;;;;;;;;;;13.60;99.90;;;;;;5096701;28;19904;-80
2022/10/06 08:41:31;;;;;;;;;;;13.50;99.90;;;;;;5079946;28;19904;-80
2022/10/06 08:43:58;;;;;;;;;;;13.60;99.90;;;;;;5096802;28;19912;-80
2022/10/06 08:46:25;;;;;;;;;;;13.70;99.30;;;;;;5096046;28;19904;-81
2022/10/06 08:48:50;;;;;;;;;;;13.90;99.80;;;;;;5091610;28;19904;-79
2022/10/06 08:51:46;;;;;;;;;;;15.70;99.80;;;;;;5088017;28;20451;-78
2022/10/06 08:54:17;;;;;;;;;;;14.20;99.40;;;;;;4967535;28;19976;-81
2022/10/06 08:56:53;;;;;;;;;;;14.40;99.40;;;;;;4985015;28;19913;-76
2022/10/06 08:59:19;;;;;;;;;;;14.10;98.30;;;;;;4987886;28;19909;-79
2022/10/06 09:01:50;;;;;;;;;;;13.80;97.40;;;;;;4985814;28;19906;-75
2022/10/06 09:04:27;;;;;;;;;;;14.80;97.10;;;;;;4981301;28;19957;-79
2022/10/06 09:06:59;;;;;;;;;;;14.70;97.70;;;;;;4964755;28;20131;-79
2022/10/06 09:09:27;;;;;;;;;;;14.90;96.40;;;;;;4965132;28;19954;-82
2022/10/06 09:12:05;;;;;;;;;;;15.10;95.80;;;;;;4964259;28;19980;-79
2022/10/06 09:14:36;;;;;;;;;;;15.20;95.70;;;;;;4981388;28;19914;-78
2022/10/06 09:17:03;;;;;;;;;;;14.30;96.40;;;;;;4966057;28;20142;-76
2022/10/06 09:19:44;;;;;;;;;;;15.40;96.60;;;;;;4979671;28;19909;-79
2022/10/06 09:22:14;;;;;;;;;;;15.70;96.40;;;;;;4962860;28;19933;-77
2022/10/06 09:24:48;;;;;;;;;;;15.50;95.40;;;;;;4978431;28;19936;-81
2022/10/06 09:27:17;;;;;;;;;;;15.60;96.40;;;;;;4978391;28;19941;-78
2022/10/06 09:29:47;;;;;;;;;;;15.60;95.50;;;;;;4975160;28;20257;-77
2022/10/06 09:32:13;;;;;;;;;;;15.80;96.00;;;;;;5083033;28;20043;-86
2022/10/06 09:34:39;;;;;;;;;;;15.50;93.40;;;;;;5082944;28;20203;-77
2022/10/06 09:37:08;;;;;;;;;;;17.10;93.70;;;;;;5082373;28;20375;-75
2022/10/06 09:39:37;;;;;;;;;;;16.60;92.90;;;;;;5062728;28;19908;-77
2022/10/06 09:42:11;;;;;;;;;;;16.30;92.70;;;;;;5081507;28;20326;-83
2022/10/06 09:44:39;;;;;;;;;;;16.50;91.90;;;;;;5060906;28;19995;-81
2022/10/06 09:47:43;;;;;;;;;;;16.70;92.60;;;;;;5079786;28;19908;-82
2022/10/06 09:50:21;;;;;;;;;;;16.80;91.30;;;;;;4962530;28;20008;-76
2022/10/06 09:53:02;;;;;;;;;;;17.00;90.40;;;;;;4979205;28;20392;-76
2022/10/06 09:55:32;;;;;;;;;;;17.00;90.10;;;;;;4979882;28;19993;-76
2022/10/06 09:57:59;;;;;;;;;;;17.20;89.40;;;;;;4977518;28;20424;-76
2022/10/06 10:00:29;;;;;;;;;;;17.40;89.20;;;;;;4977856;28;19957;-78
2022/10/06 10:02:58;;;;;;;;;;;17.90;89.70;;;;;;4978952;28;19910;-76
2022/10/06 10:05:25;;;;;;;;;;;17.80;87.00;;;;;;4961986;28;19918;-79
2022/10/06 10:08:01;;;;;;;;;;;17.70;87.40;;;;;;4977253;28;20174;-76
2022/10/06 10:10:27;;;;;;;;;;;17.70;85.60;;;;;;4976020;28;19933;-76
2022/10/06 10:12:55;;;;;;;;;;;18.10;86.90;;;;;;4960087;28;20004;-76
2022/10/06 10:15:21;;;;;;;;;;;17.90;85.50;;;;;;4978107;28;20579;-76
2022/10/06 10:17:48;;;;;;;;;;;17.70;86.50;;;;;;4962225;28;19921;-75
2022/10/06 10:20:36;;;;;;;;;;;17.70;84.70;;;;;;4977168;28;19906;-76
2022/10/06 10:23:20;;;;;;;;;;;17.90;82.20;;;;;;4974170;28;20427;-76
2022/10/06 10:26:07;;;;;;;;;;;17.50;83.80;;;;;;5080831;28;19923;-78
2022/10/06 10:28:53;;;;;;;;;;;18.00;82.90;;;;;;5080475;28;20010;-78
2022/10/06 10:31:30;;;;;;;;;;;18.30;84.00;;;;;;5061146;28;20129;-81
2022/10/06 10:34:10;;;;;;;;;;;18.60;81.80;;;;;;5079272;28;19904;-86
2022/10/06 10:36:42;;;;;;;;;;;18.80;79.80;;;;;;5080915;28;20143;-78
2022/10/06 10:39:12;;;;;;;;;;;19.00;79.80;;;;;;5062093;28;19904;-78
2022/10/06 10:41:41;;;;;;;;;;;19.30;79.50;;;;;;5061254;28;19935;-78
2022/10/06 10:44:09;;;;;;;;;;;19.40;79.40;;;;;;5079215;28;20253;-78
2022/10/06 10:47:04;;;;;;;;;;;19.50;77.00;;;;;;5060783;28;20433;-80
2022/10/06 10:49:30;;;;;;;;;;;19.70;74.60;;;;;;4959511;28;20140;-85
2022/10/06 10:52:02;;;;;;;;;;;19.80;75.20;;;;;;4976626;28;19905;-80
2022/10/06 10:54:36;;;;;;;;;;;19.90;74.60;;;;;;4960365;28;20267;-82
2022/10/06 10:57:02;;;;;;;;;;;19.20;74.30;;;;;;4975945;28;19906;-82
2022/10/06 10:59:33;;;;;;;;;;;19.90;74.40;;;;;;4976071;28;20077;-78
2022/10/06 11:02:02;;;;;;;;;;;20.00;73.60;;;;;;4977052;28;20160;-78
2022/10/06 11:04:30;;;;;;;;;;;20.20;73.10;;;;;;4976455;28;19921;-88
2022/10/06 11:07:09;;;;;;;;;;;20.30;73.80;;;;;;4962727;28;19921;-79
2022/10/06 11:09:50;;;;;;;;;;;20.60;72.40;;;;;;4968515;28;19905;-88
2022/10/06 11:12:25;;;;;;;;;;;21.00;70.80;;;;;;4986972;28;20088;-85
2022/10/06 11:14:58;;;;;;;;;;;21.20;68.10;;;;;;4981974;28;19910;-76
2022/10/06 11:17:30;;;;;;;;;;;21.30;67.90;;;;;;4980704;28;20318;-78
2022/10/06 11:19:58;;;;;;;;;;;21.60;69.30;;;;;;4981154;28;20035;-79
2022/10/06 11:22:24;;;;;;;;;;;21.80;68.40;;;;;;4963639;28;19953;-79
2022/10/06 11:25:18;;;;;;;;;;;21.90;67.70;;;;;;4964560;28;19917;-78
2022/10/06 11:27:51;;;;;;;;;;;22.10;65.90;;;;;;5079372;28;20212;-79
2022/10/06 11:30:18;;;;;;;;;;;22.10;65.70;;;;;;5078475;28;20340;-82
2022/10/06 11:33:02;;;;;;;;;;;22.00;65.60;;;;;;5079573;28;20392;-78
2022/10/06 11:35:34;;;;;;;;;;;20.80;65.70;;;;;;5079755;28;19907;-89
2022/10/06 11:38:02;;;;;;;;;;;21.90;66.30;;;;;;5061914;28;20108;-86
2022/10/06 11:40:51;;;;;;;;;;;21.80;66.90;;;;;;5079778;28;20026;-79
2022/10/06 11:43:36;;;;;;;;;;;22.10;65.60;;;;;;5079187;28;19948;-76
2022/10/06 11:46:16;;;;;;;;;;;22.10;67.40;;;;;;5062639;28;19979;-78
2022/10/06 11:48:42;;;;;;;;;;;22.40;67.50;;;;;;5060441;28;19904;-78
2022/10/06 11:51:26;;;;;;;;;;;22.90;67.80;;;;;;5079017;28;20204;-81
2022/10/06 11:53:55;;;;;;;;;;;22.80;67.60;;;;;;5061564;28;20200;-79
2022/10/06 11:56:20;;;;;;;;;;;20.30;66.80;;;;;;5078721;28;19949;-84
2022/10/06 11:58:49;;;;;;;;;;;22.80;70.20;;;;;;5060800;28;19908;-81
2022/10/06 12:01:30;;;;;;;;;;;22.80;68.80;;;;;;5081024;28;20489;-82
2022/10/06 12:04:02;;;;;;;;;;;22.90;68.70;;;;;;5064446;28;19907;-79
2022/10/06 12:06:48;;;;;;;;;;;22.60;68.50;;;;;;5064521;28;19923;-78
2022/10/06 12:09:23;;;;;;;;;;;22.90;67.40;;;;;;5082208;28;19904;-78
2022/10/06 12:11:50;;;;;;;;;;;23.00;67.60;;;;;;5064573;28;19920;-81
2022/10/06 12:14:36;;;;;;;;;;;23.20;68.10;;;;;;5065037;28;19907;-83
2022/10/06 12:17:09;;;;;;;;;;;23.20;68.90;;;;;;5064881;28;20197;-79
2022/10/06 12:19:52;;;;;;;;;;;23.30;68.10;;;;;;5065223;28;19904;-85
2022/10/06 12:22:24;;;;;;;;;;;23.30;68.20;;;;;;5065844;28;19930;-82
2022/10/06 12:24:50;;;;;;;;;;;23.20;68.10;;;;;;5082016;28;20204;-80
2022/10/06 12:27:19;;;;;;;;;;;23.30;69.20;;;;;;5063055;28;19973;-80
2022/10/06 12:29:56;;;;;;;;;;;23.50;69.10;;;;;;5082003;28;19911;-78
2022/10/06 12:32:45;;;;;;;;;;;22.40;69.70;;;;;;5083098;28;20096;-85
2022/10/06 12:35:25;;;;;;;;;;;23.80;67.00;;;;;;5081055;28;19999;-83
2022/10/06 12:37:51;;;;;;;;;;;23.70;65.60;;;;;;5081000;28;20172;-78
2022/10/06 12:40:45;;;;;;;;;;;23.80;64.40;;;;;;5081302;28;20394;-82
2022/10/06 12:43:11;;;;;;;;;;;24.00;62.10;;;;;;5062783;28;19943;-83
2022/10/06 12:45:45;;;;;;;;;;;24.00;64.70;;;;;;5080872;28;20054;-81
2022/10/06 12:48:14;;;;;;;;;;;24.10;63.60;;;;;;5081101;28;19919;-79
2022/10/06 12:50:41;;;;;;;;;;;24.60;61.30;;;;;;5063455;28;19904;-80
2022/10/06 12:53:12;;;;;;;;;;;23.10;60.90;;;;;;5081616;28;19904;-83
2022/10/06 12:55:45;;;;;;;;;;;27.20;62.90;;;;;;5081899;28;19904;-78
2022/10/06 12:58:19;;;;;;;;;;;24.10;62.20;;;;;;5063355;28;20123;-79
2022/10/06 13:00:45;;;;;;;;;;;24.40;61.10;;;;;;5083747;28;20271;-81
2022/10/06 13:03:23;;;;;;;;;;;24.40;61.60;;;;;;5063947;28;19991;-78
2022/10/06 13:05:55;;;;;;;;;;;24.40;59.90;;;;;;5062950;28;19923;-80
2022/10/06 13:08:22;;;;;;;;;;;24.30;61.90;;;;;;5063054;28;19958;-86
2022/10/06 13:10:47;;;;;;;;;;;24.60;60.80;;;;;;5082203;28;19904;-78
2022/10/06 13:13:22;;;;;;;;;;;24.70;61.60;;;;;;5080938;28;19927;-79
2022/10/06 13:15:47;;;;;;;;;;;25.00;62.50;;;;;;5062231;28;19962;-81
2022/10/06 13:18:14;;;;;;;;;;;25.20;61.60;;;;;;5080376;28;19908;-84
2022/10/06 13:20:48;;;;;;;;;;;25.30;60.40;;;;;;5081442;28;20174;-77
2022/10/06 13:23:13;;;;;;;;;;;25.60;60.80;;;;;;5062949;28;19904;-79
2022/10/06 13:25:43;;;;;;;;;;;25.50;61.40;;;;;;5080459;28;19922;-79
2022/10/06 13:28:24;;;;;;;;;;;25.70;61.60;;;;;;5062962;28;19908;-79
2022/10/06 13:30:54;;;;;;;;;;;25.90;60.40;;;;;;5081090;28;20185;-85
2022/10/06 13:33:21;;;;;;;;;;;23.50;59.10;;;;;;5082210;28;19976;-78
2022/10/06 13:35:48;;;;;;;;;;;26.00;60.50;;;;;;5063324;28;20336;-80
2022/10/06 13:38:14;;;;;;;;;;;26.10;61.20;;;;;;5062184;28;20346;-80
2022/10/06 13:40:39;;;;;;;;;;;26.10;61.90;;;;;;5081426;28;19966;-80
2022/10/06 13:43:12;;;;;;;;;;;26.40;61.40;;;;;;5081208;28;20536;-78
2022/10/06 13:45:40;;;;;;;;;;;24.50;58.80;;;;;;5081439;28;19920;-83
2022/10/06 13:48:14;;;;;;;;;;;26.70;59.70;;;;;;5081187;28;19912;-81
2022/10/06 13:50:44;;;;;;;;;;;27.00;60.20;;;;;;5079822;28;19911;-78
2022/10/06 13:53:26;;;;;;;;;;;27.10;58.80;;;;;;5061076;28;20104;-80
2022/10/06 13:55:52;;;;;;;;;;;27.20;58.80;;;;;;5079951;28;19912;-78
2022/10/06 13:58:21;;;;;;;;;;;27.60;58.70;;;;;;5061747;28;19904;-78
2022/10/06 14:00:48;;;;;;;;;;;27.90;57.50;;;;;;5080873;28;19922;-82
2022/10/06 14:03:19;;;;;;;;;;;27.90;58.50;;;;;;5080263;28;19904;-77
2022/10/06 14:05:45;;;;;;;;;;;28.30;57.90;;;;;;5061710;28;20120;-82
2022/10/06 14:08:11;;;;;;;;;;;28.60;57.90;;;;;;5062860;28;19904;-81
2022/10/06 14:10:39;;;;;;;;;;;29.00;56.80;;;;;;5081048;28;19908;-88
2022/10/06 14:13:06;;;;;;;;;;;29.30;55.50;;;;;;5081969;28;20176;-79
2022/10/06 14:15:37;;;;;;;;;;;29.50;55.90;;;;;;5080745;28;20118;-78
2022/10/06 14:18:03;;;;;;;;;;;29.50;56.60;;;;;;5079317;28;19912;-80
2022/10/06 14:20:35;;;;;;;;;;;29.00;55.30;;;;;;5062312;28;20030;-85
2022/10/06 14:23:01;;;;;;;;;;;28.70;56.80;;;;;;5081820;28;20231;-78
2022/10/06 14:25:26;;;;;;;;;;;28.40;56.10;;;;;;5080842;28;20385;-85
2022/10/06 14:27:53;;;;;;;;;;;28.30;57.50;;;;;;5081198;28;19904;-77
2022/10/06 14:30:19;;;;;;;;;;;27.10;57.40;;;;;;5063758;28;20286;-87
2022/10/06 14:32:44;;;;;;;;;;;26.80;57.70;;;;;;5087454;28;19919;-82
2022/10/06 14:35:10;;;;;;;;;;;26.30;60.00;;;;;;5087864;28;19912;-80
2022/10/06 14:37:36;;;;;;;;;;;25.50;59.60;;;;;;5070225;28;19910;-77
2022/10/06 14:40:01;;;;;;;;;;;25.40;61.30;;;;;;5087108;28;19904;-79
2022/10/06 14:42:27;;;;;;;;;;;25.10;60.70;;;;;;5085732;28;19972;-82
2022/10/06 14:44:52;;;;;;;;;;;24.70;61.80;;;;;;5082370;28;19908;-83